createdAt,value
2022-08-29T00:01:40.416Z,87.50
2022-08-29T00:04:08.486Z,88.00
2022-08-29T00:06:36.537Z,87.80
2022-08-29T00:09:05.835Z,88.40
2022-08-29T00:11:33.840Z,88.80
2022-08-29T00:14:01.818Z,88.80
2022-08-29T00:16:29.986Z,89.50
2022-08-29T00:18:58.087Z,90.20
2022-08-29T00:21:26.064Z,90.50
2022-08-29T00:23:54.011Z,90.30
2022-08-29T00:26:23.383Z,90.10
2022-08-29T00:28:54.571Z,90.40
2022-08-29T00:31:22.578Z,90.20
2022-08-29T00:33:51.185Z,90.90
2022-08-29T00:36:19.328Z,91.30
2022-08-29T00:38:50.832Z,90.80
2022-08-29T00:41:18.922Z,91.10
2022-08-29T00:43:48.373Z,91.10
2022-08-29T00:46:38.742Z,91.10
2022-08-29T00:49:11.498Z,91.50
2022-08-29T00:51:41.967Z,91.80
2022-08-29T00:54:12.789Z,92.20
2022-08-29T00:56:42.444Z,92.00
2022-08-29T00:59:15.635Z,91.80
2022-08-29T01:01:44.578Z,91.90
2022-08-29T01:04:15.684Z,91.70
2022-08-29T01:06:52.173Z,91.60
2022-08-29T01:09:20.912Z,91.60
2022-08-29T01:12:07.168Z,91.60
2022-08-29T01:14:38.720Z,91.90
2022-08-29T01:17:09.663Z,92.10
2022-08-29T01:19:43.811Z,92.30
2022-08-29T01:22:29.894Z,92.30
2022-08-29T01:25:00.593Z,91.90
2022-08-29T01:27:32.347Z,92.20
2022-08-29T01:30:00.275Z,92.50
2022-08-29T01:32:28.378Z,92.60
2022-08-29T01:34:56.353Z,92.40
2022-08-29T01:37:26.154Z,92.60
2022-08-29T01:39:54.139Z,92.70
2022-08-29T01:42:25.570Z,93.10
2022-08-29T01:44:56.444Z,93.10
2022-08-29T01:47:28.078Z,93.50
2022-08-29T01:49:56.982Z,93.40
2022-08-29T01:52:25.975Z,93.40
2022-08-29T01:54:54.076Z,93.60
2022-08-29T01:57:23.392Z,93.60
2022-08-29T01:59:51.686Z,93.60
2022-08-29T02:02:24.046Z,93.70
2022-08-29T02:04:52.109Z,93.90
2022-08-29T02:07:23.018Z,94.00
2022-08-29T02:09:51.326Z,94.10
2022-08-29T02:12:20.601Z,94.00
2022-08-29T02:14:51.606Z,94.20
2022-08-29T02:17:20.327Z,94.90
2022-08-29T02:19:48.435Z,95.00
2022-08-29T02:22:16.838Z,95.60
2022-08-29T02:24:44.779Z,95.50
2022-08-29T02:27:12.957Z,95.80
2022-08-29T02:29:41.026Z,95.90
2022-08-29T02:32:14.023Z,95.70
2022-08-29T02:34:44.653Z,96.00
2022-08-29T02:37:15.578Z,95.90
2022-08-29T02:39:43.536Z,95.70
2022-08-29T02:42:11.550Z,95.70
2022-08-29T02:44:39.502Z,95.90
2022-08-29T02:47:09.236Z,96.10
2022-08-29T02:49:39.514Z,96.70
2022-08-29T02:52:08.475Z,96.60
2022-08-29T02:54:36.556Z,96.20
2022-08-29T02:57:04.987Z,96.50
2022-08-29T02:59:33.007Z,96.40
2022-08-29T03:02:00.980Z,96.50
2022-08-29T03:04:28.980Z,96.50
2022-08-29T03:06:58.265Z,96.90
2022-08-29T03:09:26.178Z,96.80
2022-08-29T03:11:56.364Z,97.00
2022-08-29T03:14:24.960Z,96.90
2022-08-29T03:16:53.277Z,96.70
2022-08-29T03:19:21.411Z,97.10
2022-08-29T03:21:49.795Z,97.10
2022-08-29T03:24:26.460Z,97.30
2022-08-29T03:26:56.686Z,97.50
2022-08-29T03:29:25.561Z,97.40
2022-08-29T03:31:53.733Z,97.50
2022-08-29T03:34:21.729Z,97.70
2022-08-29T03:36:49.683Z,98.00
2022-08-29T03:39:19.028Z,98.10
2022-08-29T03:41:47.561Z,98.30
2022-08-29T03:44:15.550Z,98.30
2022-08-29T03:46:43.642Z,98.30
2022-08-29T03:49:12.073Z,98.30
2022-08-29T03:51:40.956Z,98.70
2022-08-29T03:54:09.642Z,98.30
2022-08-29T03:56:39.697Z,98.40
2022-08-29T03:59:08.734Z,98.70
2022-08-29T04:01:36.761Z,99.20
2022-08-29T04:04:05.234Z,99.10
2022-08-29T04:06:33.824Z,99.00
2022-08-29T04:09:02.072Z,99.00
2022-08-29T04:11:30.136Z,98.90
2022-08-29T04:13:59.410Z,99.10
2022-08-29T04:16:30.364Z,99.40
2022-08-29T04:18:59.656Z,99.70
2022-08-29T04:21:27.635Z,99.30
2022-08-29T04:23:55.593Z,99.30
2022-08-29T04:26:38.952Z,99.40
2022-08-29T04:29:10.407Z,99.60
2022-08-29T04:31:39.372Z,99.80
2022-08-29T04:34:08.916Z,99.90
2022-08-29T04:36:37.829Z,99.90
2022-08-29T04:39:06.739Z,99.90
2022-08-29T04:41:35.287Z,99.90
2022-08-29T04:44:03.827Z,99.90
2022-08-29T04:46:33.729Z,99.90
2022-08-29T04:49:04.516Z,99.90
2022-08-29T04:51:34.187Z,99.90
2022-08-29T04:54:02.779Z,99.90
2022-08-29T04:56:30.843Z,99.90
2022-08-29T04:58:59.003Z,99.90
2022-08-29T05:01:27.360Z,99.80
2022-08-29T05:03:57.901Z,99.90
2022-08-29T05:06:26.569Z,99.90
2022-08-29T05:08:59.370Z,99.90
2022-08-29T05:11:29.568Z,99.90
2022-08-29T05:13:58.002Z,99.90
2022-08-29T05:16:26.246Z,99.90
2022-08-29T05:18:54.198Z,99.90
2022-08-29T05:21:31.842Z,99.90
2022-08-29T05:24:05.324Z,99.70
2022-08-29T05:26:36.851Z,99.60
2022-08-29T05:29:05.338Z,99.90
2022-08-29T05:31:37.364Z,99.90
2022-08-29T05:34:16.299Z,99.90
2022-08-29T05:36:55.536Z,99.90
2022-08-29T05:39:23.482Z,99.90
2022-08-29T05:41:51.440Z,99.90
2022-08-29T05:44:19.335Z,99.90
2022-08-29T05:46:48.599Z,99.90
2022-08-29T05:49:16.827Z,99.90
2022-08-29T05:51:45.046Z,99.60
2022-08-29T05:54:14.810Z,99.30
2022-08-29T05:56:42.913Z,99.40
2022-08-29T05:59:12.557Z,99.20
2022-08-29T06:01:41.310Z,99.10
2022-08-29T06:04:09.388Z,98.70
2022-08-29T06:06:37.407Z,98.80
2022-08-29T06:09:06.043Z,98.60
2022-08-29T06:11:36.236Z,98.60
2022-08-29T06:14:04.220Z,98.80
2022-08-29T06:16:33.295Z,98.90
2022-08-29T06:19:01.805Z,98.60
2022-08-29T06:21:30.460Z,98.80
2022-08-29T06:23:58.955Z,98.40
2022-08-29T06:26:27.333Z,98.00
2022-08-29T06:28:56.609Z,98.40
2022-08-29T06:31:29.047Z,97.90
2022-08-29T06:33:59.305Z,98.20
2022-08-29T06:36:28.304Z,97.70
2022-08-29T06:38:57.503Z,97.60
2022-08-29T06:41:25.574Z,97.70
2022-08-29T06:43:56.736Z,97.10
2022-08-29T06:46:28.227Z,96.40
2022-08-29T06:48:57.929Z,96.10
2022-08-29T06:51:26.818Z,95.60
2022-08-29T06:53:55.172Z,95.60
2022-08-29T06:56:23.472Z,95.00
2022-08-29T06:58:54.867Z,95.00
2022-08-29T07:01:23.834Z,94.60
2022-08-29T07:03:54.734Z,94.50
2022-08-29T07:06:23.354Z,94.40
2022-08-29T07:08:55.192Z,93.90
2022-08-29T07:11:25.131Z,93.70
2022-08-29T07:13:53.148Z,93.40
2022-08-29T07:16:21.180Z,92.80
2022-08-29T07:18:51.061Z,92.40
2022-08-29T07:21:22.501Z,92.00
2022-08-29T07:23:50.608Z,91.60
2022-08-29T07:26:22.252Z,91.00
2022-08-29T07:28:51.689Z,85.70
2022-08-29T07:31:21.258Z,75.30
2022-08-29T07:33:54.517Z,61.60
2022-08-29T07:36:34.364Z,55.80
2022-08-29T07:39:05.594Z,53.50
2022-08-29T07:41:33.582Z,55.00
2022-08-29T07:44:01.845Z,55.70
2022-08-29T07:46:31.442Z,57.50
2022-08-29T07:49:00.065Z,59.20
2022-08-29T07:51:28.468Z,61.50
2022-08-29T07:53:58.563Z,62.70
2022-08-29T07:56:32.454Z,63.30
2022-08-29T07:59:03.751Z,58.90
2022-08-29T08:01:31.849Z,55.90
2022-08-29T08:03:59.836Z,52.50
2022-08-29T08:06:28.406Z,50.50
2022-08-29T08:09:00.119Z,48.40
2022-08-29T08:11:28.874Z,46.50
2022-08-29T08:13:57.483Z,45.00
2022-08-29T08:16:27.457Z,43.80
2022-08-29T08:18:56.192Z,43.00
2022-08-29T08:21:25.119Z,41.60
2022-08-29T08:23:53.498Z,41.10
2022-08-29T08:26:23.565Z,40.70
2022-08-29T08:28:51.782Z,41.30
2022-08-29T08:31:20.873Z,42.70
2022-08-29T08:33:49.370Z,43.20
2022-08-29T08:36:19.558Z,43.60
2022-08-29T08:38:48.419Z,43.80
2022-08-29T08:41:36.156Z,45.00
2022-08-29T08:44:07.247Z,45.40
2022-08-29T08:46:38.954Z,45.90
2022-08-29T08:49:10.858Z,46.80
2022-08-29T08:51:44.131Z,47.30
2022-08-29T08:54:19.299Z,46.40
2022-08-29T08:56:52.765Z,47.00
2022-08-29T08:59:26.118Z,46.60
2022-08-29T09:02:07.383Z,46.70
2022-08-29T09:04:49.813Z,45.80
2022-08-29T09:07:32.879Z,45.80
2022-08-29T09:10:17.199Z,45.50
2022-08-29T09:12:59.625Z,45.30
2022-08-29T09:15:34.869Z,46.00
2022-08-29T09:18:07.861Z,46.50
2022-08-29T09:20:38.328Z,46.90
2022-08-29T09:23:14.610Z,48.00
2022-08-29T09:25:43.163Z,47.30
2022-08-29T09:28:12.495Z,46.40
2022-08-29T09:30:43.173Z,45.70
2022-08-29T09:33:13.034Z,45.30
2022-08-29T09:35:44.527Z,44.90
2022-08-29T09:38:23.716Z,42.80
2022-08-29T09:40:54.728Z,41.90
2022-08-29T09:43:29.437Z,41.10
2022-08-29T09:46:21.008Z,41.90
2022-08-29T09:48:51.886Z,41.90
2022-08-29T09:51:25.132Z,42.00
2022-08-29T09:53:53.907Z,42.80
2022-08-29T09:56:26.305Z,43.50
2022-08-29T09:59:06.250Z,44.10
2022-08-29T10:01:36.849Z,43.70
2022-08-29T10:04:07.122Z,43.10
2022-08-29T10:06:44.252Z,42.10
2022-08-29T10:09:27.071Z,41.40
2022-08-29T10:12:01.009Z,41.40
2022-08-29T10:14:36.852Z,41.20
2022-08-29T10:17:29.310Z,40.50
2022-08-29T10:19:57.292Z,40.40
2022-08-29T10:22:36.065Z,40.20
2022-08-29T10:25:07.884Z,39.70
2022-08-29T10:27:45.343Z,40.50
2022-08-29T10:30:17.629Z,40.40
2022-08-29T10:33:07.930Z,40.40
2022-08-29T10:35:40.098Z,39.60
2022-08-29T10:38:18.888Z,40.10
2022-08-29T10:40:51.491Z,41.00
2022-08-29T10:43:34.972Z,42.30
2022-08-29T10:46:30.130Z,43.90
2022-08-29T10:49:06.564Z,44.60
2022-08-29T10:51:41.280Z,45.40
2022-08-29T10:54:20.757Z,45.40
2022-08-29T10:56:51.346Z,45.00
2022-08-29T10:59:28.736Z,45.70
2022-08-29T11:02:08.513Z,46.20
2022-08-29T11:04:39.886Z,46.40
2022-08-29T11:07:16.108Z,46.40
2022-08-29T11:09:49.204Z,46.00
2022-08-29T11:12:24.532Z,45.70
2022-08-29T11:14:58.743Z,46.70
2022-08-29T11:17:33.170Z,46.00
2022-08-29T11:20:09.543Z,46.30
2022-08-29T11:22:45.199Z,45.70
2022-08-29T11:25:15.885Z,46.50
2022-08-29T11:27:53.563Z,45.80
2022-08-29T11:30:27.844Z,45.80
2022-08-29T11:33:09.186Z,45.60
2022-08-29T11:35:51.564Z,45.30
2022-08-29T11:38:52.672Z,45.20
2022-08-29T11:41:27.788Z,45.00
2022-08-29T11:44:03.252Z,45.20
2022-08-29T11:46:39.234Z,44.80
2022-08-29T11:49:40.949Z,45.20
2022-08-29T11:52:23.047Z,44.70
2022-08-29T11:55:07.826Z,45.10
2022-08-29T11:57:54.732Z,44.50
2022-08-29T12:00:48.443Z,44.20
2022-08-29T12:03:55.910Z,44.10
2022-08-29T12:06:48.592Z,44.10
2022-08-29T12:09:35.742Z,44.00
2022-08-29T12:12:38.400Z,43.90
2022-08-29T12:15:46.256Z,44.00
2022-08-29T12:18:37.889Z,44.30
2022-08-29T12:21:44.120Z,44.00
2022-08-29T12:24:33.350Z,43.60
2022-08-29T12:27:02.191Z,43.70
2022-08-29T12:29:33.266Z,43.70
2022-08-29T12:32:28.521Z,43.60
2022-08-29T12:35:20.663Z,43.70
2022-08-29T12:38:04.589Z,43.40
2022-08-29T12:40:56.929Z,43.50
2022-08-29T12:43:34.970Z,43.60
2022-08-29T12:46:09.130Z,43.20
2022-08-29T12:48:42.407Z,43.00
2022-08-29T12:51:10.587Z,42.60
2022-08-29T12:53:39.906Z,42.20
2022-08-29T12:56:20.762Z,42.20
2022-08-29T12:58:58.608Z,42.70
2022-08-29T13:01:32.072Z,43.00
2022-08-29T13:04:03.899Z,42.30
2022-08-29T13:06:34.348Z,42.70
2022-08-29T13:09:06.031Z,42.10
2022-08-29T13:11:34.177Z,42.50
2022-08-29T13:14:11.831Z,42.80
2022-08-29T13:16:40.654Z,43.40
2022-08-29T13:19:20.067Z,42.90
2022-08-29T13:21:48.119Z,42.20
2022-08-29T13:24:20.919Z,42.70
2022-08-29T13:27:05.494Z,43.10
2022-08-29T13:29:37.190Z,43.50
2022-08-29T13:32:23.112Z,43.10
2022-08-29T13:35:02.297Z,43.10
2022-08-29T13:37:32.676Z,43.10
2022-08-29T13:40:32.270Z,43.20
2022-08-29T13:43:01.906Z,42.60
2022-08-29T13:45:30.466Z,42.60
2022-08-29T13:48:02.874Z,42.10
2022-08-29T13:50:31.101Z,41.70
2022-08-29T13:52:59.505Z,42.30
2022-08-29T13:55:29.619Z,42.40
2022-08-29T13:57:58.284Z,42.20
2022-08-29T14:00:32.158Z,42.00
2022-08-29T14:03:03.504Z,42.30
2022-08-29T14:05:31.911Z,42.10
2022-08-29T14:08:00.035Z,42.30
2022-08-29T14:10:29.371Z,42.60
2022-08-29T14:12:57.350Z,42.70
2022-08-29T14:15:25.310Z,43.00
2022-08-29T14:17:53.315Z,43.00
2022-08-29T14:20:21.403Z,43.10
2022-08-29T14:22:49.467Z,42.60
2022-08-29T14:25:20.172Z,42.20
2022-08-29T14:27:50.039Z,42.10
2022-08-29T14:30:21.001Z,42.80
2022-08-29T14:32:49.103Z,42.90
2022-08-29T14:35:27.410Z,42.60
2022-08-29T14:37:59.731Z,42.80
2022-08-29T14:40:29.079Z,42.70
2022-08-29T14:42:58.634Z,42.50
2022-08-29T14:45:27.028Z,42.80
2022-08-29T14:47:55.413Z,42.20
2022-08-29T14:50:24.682Z,42.10
2022-08-29T14:52:53.140Z,42.70
2022-08-29T14:55:22.527Z,42.90
2022-08-29T14:57:50.731Z,42.90
2022-08-29T15:00:22.550Z,42.80
2022-08-29T15:02:51.311Z,42.60
2022-08-29T15:05:19.509Z,42.80
2022-08-29T15:07:47.744Z,42.80
2022-08-29T15:10:18.635Z,42.40
2022-08-29T15:12:46.987Z,42.20
2022-08-29T15:15:14.968Z,42.30
2022-08-29T15:17:44.509Z,42.40
2022-08-29T15:23:02.822Z,42.80
2022-08-29T15:25:30.780Z,42.80
2022-08-29T15:27:58.747Z,42.90
2022-08-29T15:30:27.579Z,43.10
2022-08-29T15:32:56.848Z,43.00
2022-08-29T15:35:24.902Z,43.10
2022-08-29T15:37:54.830Z,43.30
2022-08-29T15:40:23.079Z,43.00
2022-08-29T15:42:51.297Z,43.50
2022-08-29T15:45:19.392Z,43.40
2022-08-29T15:47:51.219Z,43.40
2022-08-29T15:50:24.441Z,43.10
2022-08-29T15:52:52.964Z,43.50
2022-08-29T15:55:21.312Z,43.40
2022-08-29T15:57:51.160Z,43.00
2022-08-29T16:00:30.411Z,43.40
2022-08-29T16:03:04.274Z,43.50
2022-08-29T16:05:35.732Z,43.60
2022-08-29T16:08:04.114Z,43.70
2022-08-29T16:10:32.991Z,43.50
2022-08-29T16:13:01.311Z,43.90
2022-08-29T16:15:31.167Z,43.90
2022-08-29T16:17:59.955Z,44.30
2022-08-29T16:20:28.169Z,44.50
2022-08-29T16:22:57.990Z,44.40
2022-08-29T16:25:27.274Z,44.60
2022-08-29T16:27:55.414Z,44.90
2022-08-29T16:30:23.820Z,44.30
2022-08-29T16:32:51.964Z,44.30
2022-08-29T16:35:20.395Z,44.40
2022-08-29T16:38:02.135Z,45.10
2022-08-29T16:40:33.487Z,45.20
2022-08-29T16:43:02.561Z,44.90
2022-08-29T16:45:31.398Z,45.00
2022-08-29T16:47:59.984Z,45.30
2022-08-29T16:50:28.898Z,45.60
2022-08-29T16:52:57.300Z,45.90
2022-08-29T16:55:25.488Z,46.10
2022-08-29T16:58:12.351Z,46.00
2022-08-29T17:00:41.097Z,46.10
2022-08-29T17:03:09.477Z,46.40
2022-08-29T17:05:37.440Z,46.50
2022-08-29T17:08:04.454Z,46.60
2022-08-29T17:10:31.451Z,46.50
2022-08-29T17:12:59.869Z,46.80
2022-08-29T17:15:26.857Z,46.90
2022-08-29T17:17:54.800Z,46.60
2022-08-29T17:20:22.921Z,46.80
2022-08-29T17:22:50.982Z,47.20
2022-08-29T17:25:19.063Z,47.00
2022-08-29T17:28:14.343Z,47.10
2022-08-29T17:30:37.681Z,46.80
2022-08-29T17:33:05.766Z,46.70
2022-08-29T17:35:33.701Z,46.90
2022-08-29T17:38:01.639Z,46.90
2022-08-29T17:40:29.654Z,47.30
2022-08-29T17:42:57.677Z,47.70
2022-08-29T17:45:25.680Z,48.10
2022-08-29T17:47:56.546Z,48.80
2022-08-29T17:50:25.205Z,49.00
2022-08-29T17:52:54.021Z,48.90
2022-08-29T17:55:22.022Z,50.00
2022-08-29T17:57:50.064Z,49.20
2022-08-29T18:00:19.202Z,49.20
2022-08-29T18:02:47.191Z,49.20
2022-08-29T18:05:16.742Z,49.50
2022-08-29T18:07:44.777Z,49.40
2022-08-29T18:10:15.291Z,48.90
2022-08-29T18:12:43.330Z,49.20
2022-08-29T18:15:12.751Z,49.40
2022-08-29T18:17:41.969Z,49.40
2022-08-29T18:20:12.195Z,49.60
2022-08-29T18:22:42.508Z,49.50
2022-08-29T18:25:11.563Z,49.90
2022-08-29T18:27:43.622Z,49.80
2022-08-29T18:30:14.118Z,49.70
2022-08-29T18:32:42.455Z,49.80
2022-08-29T18:35:11.486Z,49.90
2022-08-29T18:37:40.777Z,49.90
2022-08-29T18:40:10.658Z,50.30
2022-08-29T18:42:40.967Z,50.30
2022-08-29T18:45:10.147Z,50.00
2022-08-29T18:47:38.658Z,50.30
2022-08-29T18:50:26.700Z,50.30
2022-08-29T18:52:56.601Z,50.60
2022-08-29T18:55:25.049Z,50.70
2022-08-29T18:57:53.311Z,50.70
2022-08-29T19:00:22.438Z,50.90
2022-08-29T19:02:50.437Z,51.50
2022-08-29T19:05:18.872Z,51.10
2022-08-29T19:07:46.863Z,51.50
2022-08-29T19:10:16.843Z,51.50
2022-08-29T19:12:46.941Z,51.70
2022-08-29T19:15:15.734Z,51.80
2022-08-29T19:17:43.883Z,51.70
2022-08-29T19:20:31.818Z,51.70
2022-08-29T19:22:59.827Z,51.80
2022-08-29T19:25:30.029Z,52.00
2022-08-29T19:27:58.264Z,52.40
2022-08-29T19:30:27.236Z,52.70
2022-08-29T19:32:55.334Z,53.00
2022-08-29T19:35:24.718Z,53.40
2022-08-29T19:37:53.440Z,53.40
2022-08-29T19:40:22.539Z,54.00
2022-08-29T19:42:52.201Z,54.10
2022-08-29T19:45:20.775Z,54.30
2022-08-29T19:47:49.379Z,54.60
2022-08-29T19:50:18.905Z,54.90
2022-08-29T19:52:47.130Z,55.60
2022-08-29T19:55:17.692Z,54.80
2022-08-29T19:57:47.357Z,55.10
2022-08-29T20:00:19.326Z,55.30
2022-08-29T20:02:47.547Z,55.90
2022-08-29T20:05:18.748Z,56.10
2022-08-29T20:07:50.449Z,56.50
2022-08-29T20:10:22.766Z,56.30
2022-08-29T20:12:52.246Z,56.80
2022-08-29T20:15:30.279Z,57.10
2022-08-29T20:17:59.864Z,57.50
2022-08-29T20:20:34.370Z,57.60
2022-08-29T20:23:02.446Z,58.00
2022-08-29T20:25:32.551Z,58.70
2022-08-29T20:28:01.187Z,59.20
2022-08-29T20:30:32.456Z,58.90
2022-08-29T20:33:00.984Z,59.40
2022-08-29T20:35:46.905Z,58.90
2022-08-29T20:38:15.091Z,59.20
2022-08-29T20:40:46.690Z,59.10
2022-08-29T20:43:15.058Z,58.90
2022-08-29T20:45:44.560Z,58.90
2022-08-29T20:48:13.260Z,59.30
2022-08-29T20:50:41.308Z,59.40
2022-08-29T20:53:14.872Z,59.30
2022-08-29T20:55:59.231Z,59.60
2022-08-29T20:58:28.989Z,60.10
2022-08-29T21:00:59.400Z,60.10
2022-08-29T21:03:45.428Z,60.50
2022-08-29T21:06:14.039Z,60.50
2022-08-29T21:08:42.217Z,60.10
2022-08-29T21:11:10.300Z,60.30
2022-08-29T21:13:43.186Z,61.00
2022-08-29T21:16:12.786Z,60.80
2022-08-29T21:18:41.341Z,61.00
2022-08-29T21:21:12.218Z,61.50
2022-08-29T21:23:41.289Z,61.90
2022-08-29T21:26:10.702Z,62.40
2022-08-29T21:28:39.617Z,63.20
2022-08-29T21:31:10.284Z,63.70
2022-08-29T21:33:41.648Z,64.30
2022-08-29T21:36:11.666Z,64.50
2022-08-29T21:38:39.601Z,64.90
2022-08-29T21:41:09.733Z,65.30
2022-08-29T21:43:38.244Z,65.30
2022-08-29T21:46:14.899Z,65.30
2022-08-29T21:48:44.422Z,66.40
2022-08-29T21:51:13.794Z,66.00
2022-08-29T21:53:41.867Z,66.70
2022-08-29T21:56:09.942Z,66.80
2022-08-29T21:58:37.949Z,67.30
2022-08-29T22:01:06.071Z,67.20
2022-08-29T22:03:34.000Z,67.90
2022-08-29T22:06:04.137Z,68.00
2022-08-29T22:08:32.426Z,68.50
2022-08-29T22:11:01.136Z,68.40
2022-08-29T22:13:29.150Z,68.50
2022-08-29T22:16:14.581Z,69.20
2022-08-29T22:18:42.612Z,69.60
2022-08-29T22:21:15.346Z,70.00
2022-08-29T22:23:44.621Z,70.10
2022-08-29T22:26:12.722Z,70.70
2022-08-29T22:28:41.283Z,71.10
2022-08-29T22:31:09.835Z,71.40
2022-08-29T22:33:37.829Z,72.10
2022-08-29T22:36:06.242Z,72.30
2022-08-29T22:38:35.567Z,73.00
2022-08-29T22:41:03.578Z,73.80
2022-08-29T22:43:31.595Z,73.90
2022-08-29T22:45:59.612Z,74.60
2022-08-29T22:48:27.662Z,74.80
2022-08-29T22:50:58.462Z,75.40
2022-08-29T22:53:26.757Z,76.60
2022-08-29T22:55:56.254Z,76.90
2022-08-29T22:58:24.238Z,77.50
2022-08-29T23:00:52.227Z,78.10
2022-08-29T23:03:20.542Z,79.00
2022-08-29T23:05:48.535Z,80.90
2022-08-29T23:08:17.131Z,80.60
2022-08-29T23:10:49.164Z,80.70
2022-08-29T23:13:19.023Z,81.40
2022-08-29T23:15:47.026Z,82.40
2022-08-29T23:18:15.001Z,82.90
2022-08-29T23:20:42.974Z,83.50
2022-08-29T23:23:15.088Z,84.20
2022-08-29T23:25:43.461Z,85.00
2022-08-29T23:28:11.402Z,85.90
2022-08-29T23:30:41.040Z,86.70
2022-08-29T23:33:09.136Z,87.50
2022-08-29T23:35:37.480Z,88.30
2022-08-29T23:38:07.789Z,88.80
2022-08-29T23:40:36.174Z,89.10
2022-08-29T23:43:05.313Z,89.80
2022-08-29T23:45:33.332Z,90.30
2022-08-29T23:48:02.930Z,90.40
2022-08-29T23:50:31.037Z,90.50
2022-08-29T23:52:58.977Z,90.80
2022-08-29T23:55:27.004Z,91.70
2022-08-29T23:57:54.986Z,91.30
